Sant Julià de Vilatorta





Hora UTC 17:30
Temperatura 3.7 ºC
Humedad 94.7 %
Presión 1011.4 hPa
Pluja 0.0 mm
Velocidad viento 2.2 km/h
Dirección viento SE
Radiación solar 0.0 W/m²

Datos diarios 2021-12-04



Hora UTC (invierno +1h; verano +2h)
Temperatura (ºC) Humedad (%) Presión (hPa) Velocidad viento (km/h) Precipitación (mm) Radiación solar (W/m²)
Hora UTC Aire Humedad Presión Vel. Dir. Vel. Max Dir. Intent. máx 5 min. Rad. Sol.
00:05 0.9 89.1 1016.8 2.3 NNE 2.3 ENE 0.0 0.7
00:10 1.0 89.0 1016.7 3.7 ENE 5.0 E 0.0 0.0
00:15 0.9 89.2 1016.7 3.4 ESE 6.8 ESE 0.0 0.0
00:20 1.0 89.1 1016.6 3.7 SE 7.7 ESE 0.0 0.0
00:25 0.9 88.8 1016.6 2.8 SSE 5.2 SE 0.0 0.0
00:30 0.9 88.9 1016.4 2.6 ESE 4.6 SE 0.0 0.0
00:35 0.8 88.9 1016.3 1.4 E 2.5 E 0.0 0.0
00:40 0.7 89.4 1016.2 1.6 ESE 2.7 ESE 0.0 0.0
00:45 0.5 89.6 1016.1 1.6 SE 3.2 E 0.0 0.0
00:50 0.3 90.1 1016.0 2.0 SSE 4.2 SE 0.0 0.0
00:55 0.2 90.8 1016.0 2.1 SE 4.1 SE 0.0 0.0
01:00 0.2 91.6 1015.9 2.1 ESE 3.7 E 0.0 0.0
01:05 0.1 91.8 1015.8 2.8 SE 4.9 SE 0.0 0.0
01:10 0.0 92.4 1015.8 2.2 ESE 3.5 ESE 0.0 0.0
01:15 0.0 92.7 1015.7 2.2 ESE 3.6 E 0.0 0.0
01:20 -0.1 92.8 1015.7 1.6 ESE 2.6 S 0.0 0.0
01:25 -0.2 93.0 1015.7 0.8 SSE 1.7 SSE 0.0 0.0
01:30 -0.3 93.3 1015.8 0.7 SSE 1.7 SSE 0.0 0.1
01:35 -0.2 94.0 1015.7 2.2 SSE 3.8 S 0.0 0.2
01:40 -0.2 94.0 1015.8 2.8 SSE 4.1 SE 0.0 0.0
01:45 -0.2 94.3 1015.7 3.0 SE 4.7 SE 0.0 0.0
01:50 0.0 94.7 1015.7 3.4 SE 5.6 SE 0.0 0.0
01:55 0.0 94.6 1015.8 1.8 SE 3.7 SE 0.0 0.0
02:00 -0.1 94.4 1015.7 3.4 ESE 5.0 SE 0.0 0.0
02:05 -0.1 94.6 1015.7 2.2 ESE 3.6 ESE 0.0 0.0
02:10 -0.1 94.8 1015.7 2.8 ESE 3.7 SE 0.0 0.0
02:15 0.0 95.1 1015.6 3.0 ESE 5.1 E 0.0 0.1
02:20 0.1 95.2 1015.6 3.4 ESE 6.3 E 0.0 0.0
02:25 0.1 95.4 1015.7 2.2 E 6.5 E 0.0 0.0
02:30 0.2 95.4 1015.7 1.9 SE 3.9 SSE 0.0 0.0
02:35 0.1 95.3 1015.7 1.4 ESE 2.5 SE 0.0 0.0
02:40 0.0 95.3 1015.6 2.4 NE 4.4 NE 0.0 0.0
02:45 0.0 95.6 1015.5 2.1 NE 3.9 NE 0.0 0.0
02:50 0.0 95.6 1015.5 2.5 SE 3.8 SE 0.0 0.0
02:55 0.0 95.8 1015.4 1.8 ESE 3.4 ENE 0.0 0.0
03:00 0.0 95.9 1015.4 1.7 ESE 2.8 SE 0.0 0.0
03:05 0.0 96.1 1015.3 3.1 ENE 5.7 NNE 0.0 0.3
03:10 0.1 96.4 1015.3 2.6 ESE 4.0 SE 0.0 0.4
03:15 -0.1 96.1 1015.3 1.6 ESE 2.9 SE 0.0 0.4
03:20 0.0 96.4 1015.3 2.8 ESE 4.4 E 0.0 0.5
03:25 0.7 97.3 1015.2 3.7 E 4.9 ENE 0.0 1.0
03:30 0.8 96.9 1015.2 3.1 E 4.6 E 0.0 0.6
03:35 0.7 96.4 1015.2 2.6 ESE 3.9 ESE 0.0 0.3
03:40 0.8 96.4 1015.1 2.4 ESE 4.8 ESE 0.0 0.4
03:45 1.1 96.5 1015.0 3.3 E 5.9 ENE 0.0 0.4
03:50 1.4 96.5 1014.9 3.6 E 6.5 ESE 0.0 0.5
03:55 1.8 96.5 1014.8 3.3 ESE 6.8 ESE 0.0 0.6
04:00 1.7 95.6 1014.8 1.9 ESE 3.9 SE 0.0 0.0
04:05 1.7 95.3 1014.7 2.8 E 5.0 E 0.0 0.4
04:10 1.8 95.2 1014.7 1.9 E 3.5 ENE 0.0 0.3
04:15 1.8 94.7 1014.6 1.4 ESE 3.2 E 0.0 0.1
04:20 1.7 94.6 1014.5 1.6 NW 3.1 WNW 0.0 0.0
04:25 1.6 94.3 1014.6 2.8 WSW 5.5 W 0.0 0.0
04:30 1.2 93.7 1014.6 2.9 SSW 5.4 SW 0.0 0.0
04:35 0.9 93.6 1014.6 1.4 SW 3.6 SW 0.0 0.0
04:40 0.8 94.0 1014.7 2.7 S 4.1 SSW 0.0 0.0
04:45 0.7 94.3 1014.7 2.5 SSW 4.8 SW 0.0 0.0
04:50 0.7 94.4 1014.7 1.5 WSW 3.6 SSW 0.0 0.0
04:55 0.7 94.3 1014.6 1.0 WNW 2.0 NNW 0.0 0.0
05:00 0.7 94.3 1014.6 0.8 NNW 2.1 SSW 0.0 0.0
05:05 0.8 94.3 1014.6 1.7 S 2.7 SSW 0.0 0.0
05:10 0.8 94.1 1014.5 1.4 ESE 2.7 ESE 0.0 0.0
05:15 0.8 94.0 1014.6 2.0 SE 3.0 E 0.0 0.0
05:20 0.8 94.0 1014.7 1.2 SSW 2.4 WNW 0.0 0.0
05:25 0.8 94.1 1014.8 1.2 NNW 2.2 WNW 0.0 0.2
05:30 0.8 94.2 1014.9 1.7 SSW 3.1 SSW 0.0 0.3
05:35 0.8 94.2 1014.8 1.0 SE 2.0 ESE 0.0 0.0
05:40 0.8 94.1 1014.9 2.1 NNW 3.1 N 0.0 0.0
05:45 0.7 94.2 1014.9 2.7 WNW 4.2 NNW 0.0 0.0
05:50 0.6 94.6 1014.9 3.4 N 4.9 NNW 0.0 0.0
05:55 0.7 94.9 1015.0 3.4 SE 5.6 SSE 0.0 0.0
06:00 0.7 94.9 1015.0 3.7 ESE 5.4 E 0.0 0.5
06:05 0.8 95.2 1014.8 2.4 SSE 4.6 E 0.0 0.7
06:10 0.9 95.4 1014.7 2.4 SE 5.6 ESE 0.0 0.6
06:15 1.2 95.6 1014.7 3.3 ESE 7.4 E 0.0 0.6
06:20 1.4 95.6 1014.6 1.4 ESE 2.8 ESE 0.0 0.4
06:25 1.4 95.2 1014.6 1.9 SSE 2.5 SE 0.0 0.4
06:30 1.2 95.0 1014.7 2.3 SW 3.7 SW 0.0 0.2
06:35 1.2 95.2 1014.8 2.9 SSW 6.2 SSW 0.0 0.1
06:40 1.2 95.3 1014.7 2.2 SSW 3.6 SSW 0.0 0.1
06:45 1.3 95.4 1014.6 2.7 S 4.2 SSE 0.0 0.3
06:50 1.4 95.4 1014.7 2.0 SW 3.1 SSW 0.0 0.5
06:55 1.4 95.2 1014.6 1.3 SSW 2.7 WSW 0.0 0.8
07:00 1.5 94.9 1014.5 2.0 SW 4.3 SSW 0.0 1.2
07:05 1.4 94.2 1014.4 2.5 SW 4.2 SSW 0.0 1.7
07:10 1.4 94.1 1014.4 3.0 SSE 5.3 SSE 0.0 2.5
07:15 1.5 94.2 1014.3 1.5 S 3.3 S 0.0 3.7
07:20 1.7 94.3 1014.3 1.6 NNW 3.5 NNE 0.0 5.9
07:25 1.7 94.2 1014.4 2.5 NW 4.2 NW 0.0 7.1
07:30 1.7 94.1 1014.4 1.4 W 3.1 WSW 0.0 10.5
07:35 1.8 94.2 1014.4 2.1 W 4.2 WNW 0.0 11.9
07:40 1.7 93.7 1014.4 2.3 SW 6.2 SW 0.0 12.4
07:45 1.7 93.4 1014.5 1.5 SE 3.2 WSW 0.0 15.4
07:50 1.7 93.2 1014.5 2.0 S 7.5 SE 0.0 12.8
07:55 1.7 92.7 1014.4 3.3 SSE 10.9 E 0.0 14.7
08:00 1.7 92.4 1014.4 1.3 SE 3.1 SSW 0.0 15.5
08:05 1.8 92.4 1014.4 2.6 ESE 4.8 ESE 0.0 19.7
08:10 2.0 92.4 1014.4 2.8 ESE 4.6 E 0.0 21.6
08:15 2.3 92.2 1014.4 2.2 SSE 3.6 SSE 0.0 26.7
08:20 2.4 91.7 1014.3 1.8 ESE 3.2 ESE 0.0 26.7
08:25 2.6 92.0 1014.3 3.0 ESE 4.5 E 0.0 29.4
08:30 2.8 92.2 1014.3 2.1 ENE 3.7 NE 0.0 28.9
08:35 3.0 92.2 1014.3 2.4 ENE 6.2 NE 0.0 31.9
08:40 3.2 92.2 1014.1 2.6 ENE 5.1 ENE 0.0 42.5
08:45 3.6 92.4 1014.0 2.2 NW 5.6 NW 0.0 41.5
08:50 3.7 91.4 1013.9 1.2 S 3.3 NNW 0.0 45.4
08:55 4.0 91.8 1013.8 1.4 NNW 3.3 NW 0.0 48.6
09:00 4.3 91.9 1013.8 2.2 NNE 3.7 NNE 0.0 64.6
09:05 4.5 91.8 1013.7 3.5 NE 8.1 ENE 0.0 72.0
09:10 4.6 91.6 1013.6 2.9 NNE 6.8 ENE 0.0 94.3
09:15 4.8 91.6 1013.6 2.7 NNE 7.5 NNE 0.0 128.0
09:20 5.0 91.2 1013.6 3.6 NNW 7.4 WSW 0.0 180.7
09:25 5.2 90.6 1013.7 3.0 NW 8.2 NNW 0.0 140.4
09:30 5.2 90.0 1013.6 5.6 NNW 10.2 NNW 0.0 171.6
09:35 5.3 89.9 1013.7 7.6 NW 12.4 NNW 0.0 176.2
09:40 5.3 89.5 1013.8 8.9 NNW 14.5 N 0.0 242.0
09:45 5.6 88.6 1013.7 7.9 NNW 14.3 NNW 0.0 287.0
09:50 5.6 87.6 1013.7 7.5 N 13.1 NNE 0.0 284.6
09:55 5.6 87.2 1013.6 5.9 NNE 9.0 NNW 0.0 396.5
10:00 5.8 86.3 1013.5 4.5 NNE 7.2 NNE 0.0 371.0
10:05 6.2 84.8 1013.5 4.2 NNE 7.8 NE 0.0 377.4
10:10 6.5 82.3 1013.4 5.5 NNE 9.2 NNE 0.0 382.0
10:15 6.4 81.8 1013.4 7.2 N 10.5 N 0.0 446.7
10:20 6.4 82.3 1013.3 2.5 NE 5.6 NNW 0.0 414.0
10:25 6.8 81.6 1013.2 3.7 NNE 8.9 N 0.0 470.2
10:30 7.0 80.0 1013.1 4.5 NNE 7.7 N 0.0 319.7
10:35 7.0 81.1 1013.1 2.7 N 5.6 NNE 0.0 408.7
10:40 7.3 79.9 1013.0 6.2 NNW 9.4 NW 0.0 472.7
10:45 7.4 79.6 1012.9 6.9 N 11.1 N 0.0 468.8
10:50 7.4 79.4 1012.9 8.7 N 12.0 NNW 0.0 424.5
10:55 7.3 79.2 1012.9 9.3 N 13.0 N 0.0 339.6
11:00 7.2 79.9 1012.9 10.1 N 14.8 NNW 0.0 431.4
11:05 7.2 79.3 1012.8 9.3 N 14.4 NNW 0.0 376.4
11:10 7.0 79.8 1012.8 10.1 N 14.1 N 0.0 397.2
11:15 7.1 79.6 1012.7 9.4 N 13.8 N 0.0 447.3
11:20 7.3 78.8 1012.6 8.2 N 12.9 NNE 0.0 490.0
11:25 7.4 78.4 1012.4 7.2 NNE 11.0 N 0.0 436.9
11:30 7.5 78.2 1012.5 5.3 NNE 10.4 NNE 0.0 272.2
11:35 7.7 78.0 1012.4 6.7 NNE 11.5 NNE 0.0 261.5
11:40 7.5 78.4 1012.3 9.1 N 14.0 N 0.0 219.9
11:45 7.4 79.1 1012.4 12.3 NNW 17.9 N 0.0 221.1
11:50 7.3 79.7 1012.3 9.9 N 16.3 NNW 0.0 267.1
11:55 7.5 78.9 1012.2 9.8 NNE 13.7 N 0.0 274.2
12:00 7.4 78.9 1012.1 8.9 NNE 13.2 NNE 0.0 231.2
12:05 7.4 79.0 1012.1 7.2 NNE 10.8 N 0.0 243.1
12:10 7.6 79.1 1012.0 4.1 NE 7.6 NNE 0.0 281.9
12:15 7.9 77.5 1011.8 4.1 ENE 9.1 NNE 0.0 233.5
12:20 8.0 76.9 1011.5 3.5 E 8.2 ESE 0.0 182.7
12:25 8.2 76.6 1011.2 2.9 E 7.7 ESE 0.0 190.6
12:30 8.4 75.8 1011.3 1.8 N 4.0 WSW 0.0 215.4
12:35 8.6 75.1 1011.5 2.4 NNW 6.8 NNW 0.0 193.4
12:40 8.6 74.6 1011.6 5.4 NW 8.0 NW 0.0 180.2
12:45 8.5 75.4 1011.4 5.0 WNW 9.4 NW 0.0 164.6
12:50 8.6 75.2 1011.4 2.3 WNW 5.2 WNW 0.0 158.9
12:55 8.6 74.8 1011.3 4.7 WNW 7.5 W 0.0 144.4
13:00 8.6 75.3 1011.6 4.0 WNW 7.8 NW 0.0 120.7
13:05 8.5 75.9 1011.6 5.1 NW 12.0 WNW 0.0 95.8
13:10 8.2 76.5 1011.7 6.4 NW 10.2 NW 0.0 87.2
13:15 7.9 77.9 1011.6 3.9 N 6.9 NW 0.0 80.5
13:20 7.8 78.0 1011.5 2.5 NNW 4.3 N 0.0 69.5
13:25 7.8 78.2 1011.5 2.5 NNE 3.6 N 0.0 62.3
13:30 7.7 78.7 1011.5 0.8 NNE 1.8 NE 0.0 53.9
13:35 7.8 78.6 1011.3 2.2 ENE 4.5 E 0.0 49.4
13:40 7.7 78.7 1011.3 1.5 SE 4.2 SSE 0.0 44.5
13:45 7.8 78.8 1011.2 2.4 ENE 5.3 E 0.0 44.0
13:50 7.8 78.7 1011.5 1.4 NNE 2.4 NE 0.0 49.8
13:55 7.8 79.2 1011.5 2.3 NE 3.7 N 0.0 52.6
14:00 7.7 79.4 1011.6 4.7 N 6.0 NNW 0.0 52.1
14:05 7.7 79.7 1011.3 3.8 N 5.7 N 0.0 49.2
14:10 7.7 79.6 1011.2 3.2 N 4.7 NW 0.0 45.9
14:15 7.6 79.7 1011.2 4.0 N 6.4 N 0.0 44.7
14:20 7.6 80.0 1011.2 2.2 NNE 4.0 NNE 0.0 44.0
14:25 7.6 80.0 1011.2 1.5 NNE 3.8 NNE 0.0 45.1
14:30 7.6 79.9 1011.2 1.0 NNE 2.4 N 0.0 46.5
14:35 7.5 80.3 1011.0 1.7 E 2.5 ENE 0.0 51.0
14:40 7.5 80.7 1010.9 1.3 ESE 2.3 ENE 0.0 48.2
14:45 7.5 80.8 1010.9 1.0 NNE 1.8 NE 0.0 47.8
14:50 7.5 81.1 1010.9 1.0 E 2.4 NE 0.0 49.2
14:55 7.5 81.1 1010.9 0.9 SW 1.7 WNW 0.0 49.6
15:00 7.5 81.4 1011.0 2.0 WNW 3.5 WNW 0.0 45.9
15:05 7.4 81.7 1011.1 2.6 WNW 3.6 NW 0.0 45.3
15:10 7.4 81.9 1011.0 1.4 WNW 2.6 W 0.0 46.5
15:15 7.3 82.1 1011.0 2.7 NNW 4.3 NNW 0.0 47.7
15:20 7.1 83.0 1011.0 2.1 NNW 3.3 N 0.0 45.3
15:25 7.0 83.4 1011.0 0.5 NNW 1.8 NW 0.0 37.9
15:30 7.0 83.6 1011.0 0.8 NNW 1.8 NW 0.0 31.7
15:35 6.8 84.1 1011.0 0.6 NNW 1.8 NNW 0.0 27.6
15:40 6.7 85.1 1011.1 2.9 N 4.1 N 0.0 23.9
15:45 6.5 86.0 1011.1 2.3 NNE 3.8 N 0.0 23.0
15:50 6.4 86.1 1011.1 2.1 NNW 3.4 NW 0.0 23.3
15:55 6.4 86.6 1011.2 1.3 WSW 2.6 NW 0.0 19.3
16:00 6.3 86.8 1011.3 0.8 WSW 1.8 WSW 0.0 15.0
16:05 6.2 87.0 1011.4 0.3 SE 1.2 SE 0.0 13.0
16:10 6.0 87.5 1011.4 0.7 SE 1.6 SE 0.0 9.6
16:15 5.8 88.0 1011.4 1.0 ESE 1.6 ESE 0.0 6.7
16:20 5.7 89.1 1011.3 2.1 ESE 2.9 ESE 0.0 5.3
16:25 5.6 89.7 1011.3 1.6 ESE 2.8 ESE 0.0 5.2
16:30 5.5 89.8 1011.3 1.0 ESE 1.9 SE 0.0 4.1
16:35 5.3 89.9 1011.4 1.6 E 3.0 E 0.0 2.0
16:40 5.2 91.0 1011.3 1.3 SSE 2.2 E 0.0 0.2
16:45 5.1 91.3 1011.3 2.2 ESE 3.9 E 0.0 0.0
16:50 4.9 91.8 1011.3 3.7 E 4.7 E 0.0 0.0
16:55 4.8 92.3 1011.3 2.4 SE 3.7 E 0.0 0.0
17:00 4.7 92.8 1011.4 2.2 E 3.5 E 0.0 0.0
17:05 4.5 92.9 1011.4 1.1 SSE 2.6 E 0.0 0.0
17:10 4.2 93.2 1011.4 1.1 ESE 2.3 SE 0.0 0.0
17:15 4.1 93.7 1011.4 2.0 SE 3.5 SE 0.0 0.0
17:20 4.0 94.1 1011.3 1.5 SE 2.4 SSE 0.0 0.0
17:25 3.9 94.4 1011.4 1.6 ESE 3.5 E 0.0 0.0
17:30 3.7 94.7 1011.4 2.2 SE 3.2 E 0.0 0.0
Máxima 8.8 97.3 1016.8 12.3 NNW 17.9 N 0.0 490.0
Mínima -0.4 74.6 1010.9
Total 0.0